Flight Track Log - Related Links

Times and Time Zones

All times are in EDT time to prevent confusion due to time zone crossing. See the ASQ4283 flight status page for this flight to view local times or setup timezone preferences in your user account.

Time Position Orientation Groundspeed Altitude Reporting Facility
EDT Latitude Longitude Course Direction KTS MPH feet Rate Location/Type
Sat 08:55:22 AM 41.9333 -87.9333 200° South 193 222 2,900  Level Chicago TRACON
Sat 08:56:22 AM 41.8667 -87.9667 200° South 245 282 4,500 1,189 Climbing Chicago TRACON
Sat 08:57:13 AM 41.8122 -87.9647 178° South 261 300 5,100 1,858 Climbing Chicago Center
Sat 08:58:15 AM 41.7417 -87.9417 166° South 268 308 8,000 2,732 Climbing Chicago Center
Sat 08:59:16 AM 41.6822 -87.8717 139° Southeast 284 327 10,700 2,683 Climbing Chicago Center
Sat 09:00:18 AM 41.6067 -87.7844 139° Southeast 297 342 13,500 2,390 Climbing Chicago Center
Sat 09:01:19 AM 41.5250 -87.7478 161° South 310 357 15,600 1,951 Climbing Chicago Center
Sat 09:02:21 AM 41.4400 -87.7156 164° South 314 361 17,500 1,403 Climbing Chicago Center
Sat 09:03:23 AM 41.3489 -87.6792 163° South 335 386 18,500 927 Climbing Chicago Center
Sat 09:04:24 AM 41.2508 -87.6417 164° South 359 413 19,400 1,122 Climbing Chicago Center
Sat 09:05:26 AM 41.1511 -87.6022 163° South 372 428 20,800 1,838 Climbing Chicago Center
Sat 09:07:17 AM 40.9686 -87.5333 164° South 371 427 24,700 2,012 Climbing Indianapolis Center
Sat 09:08:19 AM 40.8806 -87.4981 163° South 338 389 26,600 2,000 Climbing Indianapolis Center
Sat 09:09:20 AM 40.7750 -87.4592 164° South 330 380 28,800 2,195 Climbing Indianapolis Center
Sat 09:10:22 AM 40.6903 -87.4264 164° South 320 368 31,100 2,000 Climbing Indianapolis Center
Sat 09:11:23 AM 40.6133 -87.3964 164° South 294 338 32,900 1,623 Climbing Indianapolis Center
Sat 09:12:24 AM 40.5378 -87.3681 164° South 286 329 34,400 1,366 Climbing Indianapolis Center
Sat 09:13:26 AM 40.4636 -87.3383 163° South 280 322 35,700 1,073 Climbing Indianapolis Center
Sat 09:14:27 AM 40.3917 -87.3061 161° South 275 316 36,600 634 Climbing Indianapolis Center
Sat 09:15:29 AM 40.3167 -87.2706 160° South 284 327 37,000 195 Climbing Indianapolis Center
Sat 09:16:30 AM 40.2194 -87.2250 160° South 309 356 37,000  Level Indianapolis Center
Sat 09:17:32 AM 40.1317 -87.1850 161° South 334 384 37,000  Level Indianapolis Center
Sat 09:18:33 AM 40.0392 -87.1414 160° South 352 405 37,000  Level Indianapolis Center
Sat 09:19:34 AM 39.9456 -87.0839 155° Southeast 373 429 37,000  Level Indianapolis Center
Sat 09:20:36 AM 39.8556 -87.0067 147° Southeast 388 447 37,000  Level Indianapolis Center
Sat 09:21:37 AM 39.7647 -86.9317 148° Southeast 390 449 37,000  Level Indianapolis Center
Sat 09:22:39 AM 39.6756 -86.8556 147° Southeast 387 445 37,000  Level Indianapolis Center
Sat 09:23:40 AM 39.5689 -86.7681 148° Southeast 383 441 37,000  Level Indianapolis Center
Sat 09:24:42 AM 39.4797 -86.6939 147° Southeast 384 442 37,000  Level Indianapolis Center
Sat 09:25:43 AM 39.3903 -86.6192 147° Southeast 386 444 37,000  Level Indianapolis Center
Sat 09:26:44 AM 39.2981 -86.5578 153° Southeast 379 436 37,000  Level Indianapolis Center
Sat 09:27:46 AM 39.2000 -86.5122 160° South 376 433 37,000  Level Indianapolis Center
Sat 09:28:47 AM 39.1019 -86.4656 160° South 376 433 37,000  Level Indianapolis Center
Sat 09:29:49 AM 39.0128 -86.3931 148° Southeast 393 452 37,000  Level Indianapolis Center
Sat 09:30:50 AM 38.9161 -86.2800 138° Southeast 395 455 37,000  Level Indianapolis Center
Sat 09:31:52 AM 38.8442 -86.1933 137° Southeast 396 456 37,000  Level Indianapolis Center
Sat 09:32:53 AM 38.7622 -86.0956 137° Southeast 399 459 37,000  Level Indianapolis Center
Sat 09:33:54 AM 38.6797 -85.9969 137° Southeast 402 463 37,000  Level Indianapolis Center
Sat 09:34:56 AM 38.5972 -85.9000 137° Southeast 399 459 37,000  Level Indianapolis Center
Sat 09:35:57 AM 38.4972 -85.7822 137° Southeast 404 465 37,000  Level Indianapolis Center
Sat 09:36:59 AM 38.4133 -85.6833 137° Southeast 406 467 37,000  Level Indianapolis Center
Sat 09:38:00 AM 38.3294 -85.5847 137° Southeast 408 470 37,000  Level Indianapolis Center
Sat 09:39:02 AM 38.2444 -85.4853 137° Southeast 411 473 37,000  Level Indianapolis Center
Sat 09:40:03 AM 38.1581 -85.3856 138° Southeast 414 476 37,000  Level Indianapolis Center
Sat 09:41:05 AM 38.0719 -85.2861 138° Southeast 416 479 37,000  Level Indianapolis Center
Sat 09:42:06 AM 37.9842 -85.1875 138° Southeast 420 483 37,000  Level Indianapolis Center
Sat 09:43:08 AM 37.8975 -85.0875 138° Southeast 420 483 37,000  Level Indianapolis Center
Sat 09:44:09 AM 37.7961 -84.9700 138° Southeast 420 483 37,000  Level Indianapolis Center
Sat 09:45:11 AM 37.7086 -84.8692 138° Southeast 424 488 37,000  Level Indianapolis Center
Sat 09:46:12 AM 37.6208 -84.7681 138° Southeast 426 490 37,000  Level Indianapolis Center
Sat 09:47:14 AM 37.5308 -84.6700 139° Southeast 427 491 37,000  Level Indianapolis Center
Sat 09:48:15 AM 37.4425 -84.5694 138° Southeast 427 491 37,000  Level Indianapolis Center
Sat 09:49:17 AM 37.3544 -84.4694 138° Southeast 427 491 37,000 -49 Level Indianapolis Center
Sat 09:50:18 AM 37.2664 -84.3708 138° Southeast 424 488 36,900 -443 Descending Indianapolis Center
Sat 09:51:19 AM 37.1792 -84.2733 138° Southeast 419 482 36,100 -878 Descending Indianapolis Center
Sat 09:52:21 AM 37.0778 -84.1603 138° Southeast 418 481 35,100 -878 Descending Indianapolis Center
Sat 09:53:22 AM 36.9944 -84.0572 135° Southeast 424 488 34,300 -878 Descending Indianapolis Center
Sat 09:54:24 AM 36.9133 -83.9428 132° Southeast 435 501 33,300 -1,268 Descending Indianapolis Center
Sat 09:55:25 AM 36.8314 -83.8281 132° Southeast 442 509 31,700 -2,098 Descending Indianapolis Center
Sat 09:56:27 AM 36.7531 -83.7214 132° Southeast 426 490 29,000 -2,683 Descending Indianapolis Center
Sat 09:57:28 AM 36.6781 -83.6158 132° Southeast 411 473 26,200 -2,098 Descending Indianapolis Center
Sat 09:58:30 AM 36.6008 -83.5189 135° Southeast 399 459 24,700 -1,073 Descending Indianapolis Center
Sat 09:59:31 AM 36.5183 -83.3986 130° Southeast 393 452 24,000 -344 Descending Indianapolis Center
Sat 10:00:32 AM 36.4414 -83.2933 132° Southeast 407 468 24,000 -146 Level Indianapolis Center
Sat 10:01:34 AM 36.3608 -83.1842 132° Southeast 424 488 23,700 -634 Descending Indianapolis Center
Sat 10:02:35 AM 36.2833 -83.0778 132° Southeast 421 484 22,700 -927 Descending Indianapolis Center
Sat 10:03:37 AM 36.2081 -82.9761 133° Southeast 405 466 21,800 -927 Descending Indianapolis Center
Sat 10:04:38 AM 36.1339 -82.8761 133° Southeast 395 455 20,800 -1,073 Descending Indianapolis Center
Sat 10:05:40 AM 36.0500 -82.7628 132° Southeast 386 444 19,600 -878 Descending Indianapolis Center
Sat 10:06:41 AM 35.9689 -82.6861 143° Southeast 364 419 19,000 -293 Descending Indianapolis Center
Sat 10:07:43 AM 35.8794 -82.6197 149° Southeast 372 428 19,000 -361 Level Indianapolis Center
Sat 10:08:54 AM 35.7675 -82.5364 149° Southeast 378 435 18,200 -1,145 Descending Atlanta Center
Sat 10:09:54 AM 35.6811 -82.4742 150° Southeast 375 432 16,500 -1,850 Descending Atlanta Center
Sat 10:10:54 AM 35.5969 -82.4119 149° Southeast 370 426 14,500 -2,000 Descending Atlanta Center
Sat 10:11:54 AM 35.5147 -82.3522 149° Southeast 351 404 12,500 -1,800 Descending Atlanta Center
Sat 10:12:54 AM 35.4344 -82.2875 147° Southeast 345 397 10,900 -1,200 Descending Atlanta Center
Sat 10:13:54 AM 35.3508 -82.2664 168° South 312 359 10,100 -1,200 Descending Atlanta Center
Sat 10:14:54 AM 35.2778 -82.2578 175° South 280 322 8,500 -1,500 Descending Atlanta Center
Sat 10:15:54 AM 35.2169 -82.2389 166° South 265 305 7,100 -800 Descending Atlanta Center
Sat 10:16:54 AM 35.1519 -82.2150 163° South 247 284 6,900 -1,000 Descending Atlanta Center
Sat 10:17:54 AM 35.0931 -82.1858 158° South 242 278 5,100 -1,550 Descending Atlanta Center
Sat 10:18:54 AM 35.0628 -82.1203 119° Southeast 221 254 3,800 -1,050 Descending Atlanta Center
Sat 10:19:54 AM 35.0067 -82.1369 194° South 182 209 3,000 -450 Descending Atlanta Center
Sat 10:20:54 AM 34.9569 -82.1558 197° South 182 209 2,900 -100 Descending Atlanta Center
Sat 10:22:00 AM 34.8957 -82.2189 180° South  Level Estimated
Sat 10:29:00 AM 34.8957 -82.2189 180° South  Level Estimated
Sat 10:30:00 AM 34.8957 -82.2189 180° South  Level Estimated

Login

Don't have an account? Register now (free) for customized features, flight alerts, and more!